Saskatoon, Canada
Current Conditions -  °F | °C
As of 3:00 AM on Friday 31 Oct 2014 (Local Time) from CYXE Reporting Station
Overcast Overcast  
Wind Chill: 20°   Ceiling: 1400
Heat Index: 32°   Visibility: 15mi
Dew Point: 28°   Wind: 20mph
Humidity: 87%   Direction: 150°SSE
Pressure: 30.19"   Gusts: 31mph
Location:  52.13°N, 106.66°W
Report Text: CYXE 310900Z 15017G27KT 15SM OVC014 00/M02 A3019 RMK SC8 SLP250
Loading
Personal Weather Stations






























Interactive Weather Map
Tropical Storm Tracking
New forecast layout! Learn more

10-Day Weather Forecast

Advertisements
Track Severe Weather on mobile